sensor_id;sensor_type;location;lat;lon;timestamp;P1;durP1;ratioP1;P2;durP2;ratioP2
41966;SDS011;27656;53.068;8.818;2024-03-02T00:00:24;21.37;;;13.50;;
41966;SDS011;27656;53.068;8.818;2024-03-02T00:02:51;22.93;;;13.50;;
41966;SDS011;27656;53.068;8.818;2024-03-02T00:05:18;19.77;;;13.80;;
41966;SDS011;27656;53.068;8.818;2024-03-02T00:07:47;21.83;;;14.03;;
41966;SDS011;27656;53.068;8.818;2024-03-02T00:10:20;23.13;;;12.83;;
41966;SDS011;27656;53.068;8.818;2024-03-02T00:12:51;23.00;;;14.10;;
41966;SDS011;27656;53.068;8.818;2024-03-02T00:18:04;20.97;;;13.03;;
41966;SDS011;27656;53.068;8.818;2024-03-02T00:20:31;21.50;;;13.90;;
41966;SDS011;27656;53.068;8.818;2024-03-02T00:23:04;20.43;;;13.33;;
41966;SDS011;27656;53.068;8.818;2024-03-02T00:25:42;23.70;;;14.27;;
41966;SDS011;27656;53.068;8.818;2024-03-02T00:28:20;23.50;;;14.67;;
41966;SDS011;27656;53.068;8.818;2024-03-02T00:30:58;21.00;;;12.33;;
41966;SDS011;27656;53.068;8.818;2024-03-02T00:33:32;22.77;;;14.07;;
41966;SDS011;27656;53.068;8.818;2024-03-02T00:36:01;22.23;;;13.10;;
41966;SDS011;27656;53.068;8.818;2024-03-02T00:38:30;21.10;;;13.67;;
41966;SDS011;27656;53.068;8.818;2024-03-02T00:41:04;23.83;;;13.47;;
41966;SDS011;27656;53.068;8.818;2024-03-02T00:43:42;21.07;;;13.30;;
41966;SDS011;27656;53.068;8.818;2024-03-02T00:46:15;24.40;;;13.90;;
41966;SDS011;27656;53.068;8.818;2024-03-02T00:48:48;22.80;;;13.87;;
41966;SDS011;27656;53.068;8.818;2024-03-02T00:51:17;21.83;;;14.30;;
41966;SDS011;27656;53.068;8.818;2024-03-02T00:53:44;20.00;;;13.77;;
41966;SDS011;27656;53.068;8.818;2024-03-02T00:56:11;21.67;;;13.57;;
41966;SDS011;27656;53.068;8.818;2024-03-02T00:58:38;21.40;;;13.13;;
41966;SDS011;27656;53.068;8.818;2024-03-02T01:01:05;21.17;;;13.27;;
41966;SDS011;27656;53.068;8.818;2024-03-02T01:03:33;21.77;;;13.73;;
41966;SDS011;27656;53.068;8.818;2024-03-02T01:06:00;23.00;;;13.60;;
41966;SDS011;27656;53.068;8.818;2024-03-02T01:08:27;23.23;;;13.90;;
41966;SDS011;27656;53.068;8.818;2024-03-02T01:10:53;21.23;;;13.40;;
41966;SDS011;27656;53.068;8.818;2024-03-02T01:13:24;22.57;;;13.10;;
41966;SDS011;27656;53.068;8.818;2024-03-02T01:15:50;19.43;;;12.20;;
41966;SDS011;27656;53.068;8.818;2024-03-02T01:18:17;22.33;;;13.23;;
41966;SDS011;27656;53.068;8.818;2024-03-02T01:20:43;20.00;;;13.07;;
41966;SDS011;27656;53.068;8.818;2024-03-02T01:23:10;22.37;;;12.93;;
41966;SDS011;27656;53.068;8.818;2024-03-02T01:25:36;24.00;;;13.73;;
41966;SDS011;27656;53.068;8.818;2024-03-02T01:28:03;19.77;;;13.10;;
41966;SDS011;27656;53.068;8.818;2024-03-02T01:30:30;23.70;;;13.60;;
41966;SDS011;27656;53.068;8.818;2024-03-02T01:32:57;24.87;;;14.23;;
41966;SDS011;27656;53.068;8.818;2024-03-02T01:35:25;22.30;;;13.67;;
41966;SDS011;27656;53.068;8.818;2024-03-02T01:37:53;20.37;;;12.03;;
41966;SDS011;27656;53.068;8.818;2024-03-02T01:40:19;24.93;;;12.90;;
41966;SDS011;27656;53.068;8.818;2024-03-02T01:42:46;21.77;;;12.90;;
41966;SDS011;27656;53.068;8.818;2024-03-02T01:45:13;20.07;;;13.07;;
41966;SDS011;27656;53.068;8.818;2024-03-02T01:47:39;18.23;;;12.40;;
41966;SDS011;27656;53.068;8.818;2024-03-02T01:50:06;24.23;;;13.77;;
41966;SDS011;27656;53.068;8.818;2024-03-02T01:52:33;20.50;;;13.03;;
41966;SDS011;27656;53.068;8.818;2024-03-02T01:55:00;22.00;;;12.87;;
41966;SDS011;27656;53.068;8.818;2024-03-02T01:57:26;20.60;;;13.03;;
41966;SDS011;27656;53.068;8.818;2024-03-02T01:59:53;19.47;;;12.43;;
41966;SDS011;27656;53.068;8.818;2024-03-02T02:02:19;22.73;;;14.33;;
41966;SDS011;27656;53.068;8.818;2024-03-02T02:04:46;18.80;;;12.00;;
41966;SDS011;27656;53.068;8.818;2024-03-02T02:07:12;20.97;;;12.67;;
41966;SDS011;27656;53.068;8.818;2024-03-02T02:09:43;20.03;;;11.37;;
41966;SDS011;27656;53.068;8.818;2024-03-02T02:12:10;19.43;;;12.30;;
41966;SDS011;27656;53.068;8.818;2024-03-02T02:14:37;19.00;;;12.03;;
41966;SDS011;27656;53.068;8.818;2024-03-02T02:17:05;19.80;;;12.23;;
41966;SDS011;27656;53.068;8.818;2024-03-02T02:19:31;19.43;;;12.13;;
41966;SDS011;27656;53.068;8.818;2024-03-02T02:21:58;19.57;;;11.40;;
41966;SDS011;27656;53.068;8.818;2024-03-02T02:24:24;20.57;;;11.30;;
41966;SDS011;27656;53.068;8.818;2024-03-02T02:26:51;17.53;;;11.77;;
41966;SDS011;27656;53.068;8.818;2024-03-02T02:29:17;18.03;;;11.73;;
41966;SDS011;27656;53.068;8.818;2024-03-02T02:31:44;18.90;;;11.37;;
41966;SDS011;27656;53.068;8.818;2024-03-02T02:34:10;20.60;;;12.20;;
41966;SDS011;27656;53.068;8.818;2024-03-02T02:36:37;19.13;;;11.60;;
41966;SDS011;27656;53.068;8.818;2024-03-02T02:39:06;18.17;;;11.23;;
41966;SDS011;27656;53.068;8.818;2024-03-02T02:41:37;22.30;;;12.93;;
41966;SDS011;27656;53.068;8.818;2024-03-02T02:44:03;20.73;;;12.17;;
41966;SDS011;27656;53.068;8.818;2024-03-02T02:46:30;20.93;;;12.40;;
41966;SDS011;27656;53.068;8.818;2024-03-02T02:48:57;20.90;;;12.43;;
41966;SDS011;27656;53.068;8.818;2024-03-02T02:51:23;24.50;;;13.57;;
41966;SDS011;27656;53.068;8.818;2024-03-02T02:53:51;22.17;;;13.50;;
41966;SDS011;27656;53.068;8.818;2024-03-02T02:56:18;20.67;;;12.73;;
41966;SDS011;27656;53.068;8.818;2024-03-02T02:58:44;23.20;;;14.23;;
41966;SDS011;27656;53.068;8.818;2024-03-02T03:01:11;20.30;;;12.90;;
41966;SDS011;27656;53.068;8.818;2024-03-02T03:03:37;22.67;;;13.83;;
41966;SDS011;27656;53.068;8.818;2024-03-02T03:06:04;20.57;;;12.90;;
41966;SDS011;27656;53.068;8.818;2024-03-02T03:08:30;23.20;;;14.03;;
41966;SDS011;27656;53.068;8.818;2024-03-02T03:10:57;24.50;;;13.83;;
41966;SDS011;27656;53.068;8.818;2024-03-02T03:13:23;25.27;;;15.13;;
41966;SDS011;27656;53.068;8.818;2024-03-02T03:15:50;26.80;;;15.20;;
41966;SDS011;27656;53.068;8.818;2024-03-02T03:18:16;25.33;;;15.07;;
41966;SDS011;27656;53.068;8.818;2024-03-02T03:20:43;24.83;;;14.93;;
41966;SDS011;27656;53.068;8.818;2024-03-02T03:23:09;24.67;;;16.00;;
41966;SDS011;27656;53.068;8.818;2024-03-02T03:25:41;25.53;;;14.70;;
41966;SDS011;27656;53.068;8.818;2024-03-02T03:28:08;25.37;;;16.07;;
41966;SDS011;27656;53.068;8.818;2024-03-02T03:30:36;25.83;;;15.17;;
41966;SDS011;27656;53.068;8.818;2024-03-02T03:33:04;23.93;;;14.97;;
41966;SDS011;27656;53.068;8.818;2024-03-02T03:35:34;23.70;;;15.27;;
41966;SDS011;27656;53.068;8.818;2024-03-02T03:38:01;24.77;;;15.77;;
41966;SDS011;27656;53.068;8.818;2024-03-02T03:40:27;26.47;;;15.63;;
41966;SDS011;27656;53.068;8.818;2024-03-02T03:42:54;24.43;;;15.00;;
41966;SDS011;27656;53.068;8.818;2024-03-02T03:45:22;24.97;;;14.93;;
41966;SDS011;27656;53.068;8.818;2024-03-02T03:47:48;23.97;;;14.83;;
41966;SDS011;27656;53.068;8.818;2024-03-02T03:50:15;29.40;;;15.23;;
41966;SDS011;27656;53.068;8.818;2024-03-02T03:52:41;22.43;;;14.17;;
41966;SDS011;27656;53.068;8.818;2024-03-02T03:55:08;25.37;;;15.13;;
41966;SDS011;27656;53.068;8.818;2024-03-02T03:57:35;23.57;;;15.10;;
41966;SDS011;27656;53.068;8.818;2024-03-02T04:00:02;24.97;;;14.57;;
41966;SDS011;27656;53.068;8.818;2024-03-02T04:02:29;22.03;;;13.73;;
41966;SDS011;27656;53.068;8.818;2024-03-02T04:04:56;22.37;;;14.63;;
41966;SDS011;27656;53.068;8.818;2024-03-02T04:07:22;23.27;;;14.97;;
41966;SDS011;27656;53.068;8.818;2024-03-02T04:09:49;21.40;;;14.07;;
41966;SDS011;27656;53.068;8.818;2024-03-02T04:12:15;21.53;;;14.03;;
41966;SDS011;27656;53.068;8.818;2024-03-02T04:14:42;22.07;;;13.90;;
41966;SDS011;27656;53.068;8.818;2024-03-02T04:17:09;22.73;;;14.73;;
41966;SDS011;27656;53.068;8.818;2024-03-02T04:19:35;21.93;;;13.97;;
41966;SDS011;27656;53.068;8.818;2024-03-02T04:22:02;20.57;;;12.83;;
41966;SDS011;27656;53.068;8.818;2024-03-02T04:24:43;21.27;;;13.57;;
41966;SDS011;27656;53.068;8.818;2024-03-02T04:27:10;20.17;;;12.80;;
41966;SDS011;27656;53.068;8.818;2024-03-02T04:29:36;19.37;;;12.93;;
41966;SDS011;27656;53.068;8.818;2024-03-02T04:32:03;20.93;;;13.23;;
41966;SDS011;27656;53.068;8.818;2024-03-02T04:34:29;18.67;;;11.20;;
41966;SDS011;27656;53.068;8.818;2024-03-02T04:36:59;20.30;;;12.83;;
41966;SDS011;27656;53.068;8.818;2024-03-02T04:39:25;18.80;;;12.63;;
41966;SDS011;27656;53.068;8.818;2024-03-02T04:41:52;20.40;;;12.23;;
41966;SDS011;27656;53.068;8.818;2024-03-02T04:44:19;18.77;;;11.80;;
41966;SDS011;27656;53.068;8.818;2024-03-02T04:46:45;19.70;;;12.50;;
41966;SDS011;27656;53.068;8.818;2024-03-02T04:49:11;18.10;;;12.17;;
41966;SDS011;27656;53.068;8.818;2024-03-02T04:51:38;20.03;;;12.00;;
41966;SDS011;27656;53.068;8.818;2024-03-02T04:54:04;18.30;;;12.17;;
41966;SDS011;27656;53.068;8.818;2024-03-02T04:56:31;19.57;;;11.97;;
41966;SDS011;27656;53.068;8.818;2024-03-02T04:58:57;19.63;;;11.60;;
41966;SDS011;27656;53.068;8.818;2024-03-02T05:01:24;17.40;;;11.37;;
41966;SDS011;27656;53.068;8.818;2024-03-02T05:03:50;22.97;;;12.10;;
41966;SDS011;27656;53.068;8.818;2024-03-02T05:06:17;17.77;;;12.07;;
41966;SDS011;27656;53.068;8.818;2024-03-02T05:08:44;20.53;;;12.20;;
41966;SDS011;27656;53.068;8.818;2024-03-02T05:11:11;18.17;;;11.67;;
41966;SDS011;27656;53.068;8.818;2024-03-02T05:13:56;20.07;;;12.53;;
41966;SDS011;27656;53.068;8.818;2024-03-02T05:16:22;16.40;;;11.17;;
41966;SDS011;27656;53.068;8.818;2024-03-02T05:18:49;19.67;;;11.57;;
41966;SDS011;27656;53.068;8.818;2024-03-02T05:21:16;20.80;;;12.23;;
41966;SDS011;27656;53.068;8.818;2024-03-02T05:23:42;20.53;;;12.43;;
41966;SDS011;27656;53.068;8.818;2024-03-02T05:26:09;16.37;;;11.50;;
41966;SDS011;27656;53.068;8.818;2024-03-02T05:28:38;16.50;;;11.40;;
41966;SDS011;27656;53.068;8.818;2024-03-02T05:31:05;17.00;;;11.17;;
41966;SDS011;27656;53.068;8.818;2024-03-02T05:33:31;18.73;;;12.20;;
41966;SDS011;27656;53.068;8.818;2024-03-02T05:35:59;18.23;;;12.37;;
41966;SDS011;27656;53.068;8.818;2024-03-02T05:38:26;16.17;;;11.73;;
41966;SDS011;27656;53.068;8.818;2024-03-02T05:40:52;18.80;;;11.30;;
41966;SDS011;27656;53.068;8.818;2024-03-02T05:43:22;18.30;;;11.80;;
41966;SDS011;27656;53.068;8.818;2024-03-02T05:45:48;17.83;;;11.77;;
41966;SDS011;27656;53.068;8.818;2024-03-02T05:48:15;16.27;;;10.80;;
41966;SDS011;27656;53.068;8.818;2024-03-02T05:50:42;19.30;;;12.03;;
41966;SDS011;27656;53.068;8.818;2024-03-02T05:53:08;17.87;;;11.87;;
41966;SDS011;27656;53.068;8.818;2024-03-02T05:55:35;20.23;;;12.00;;
41966;SDS011;27656;53.068;8.818;2024-03-02T05:58:01;18.17;;;12.10;;
41966;SDS011;27656;53.068;8.818;2024-03-02T06:00:46;19.13;;;12.37;;
41966;SDS011;27656;53.068;8.818;2024-03-02T06:03:13;19.93;;;13.17;;
41966;SDS011;27656;53.068;8.818;2024-03-02T06:05:39;19.77;;;12.47;;
41966;SDS011;27656;53.068;8.818;2024-03-02T06:08:07;21.23;;;12.83;;
41966;SDS011;27656;53.068;8.818;2024-03-02T06:10:33;20.83;;;13.57;;
41966;SDS011;27656;53.068;8.818;2024-03-02T06:13:00;17.80;;;11.83;;
41966;SDS011;27656;53.068;8.818;2024-03-02T06:15:26;20.37;;;12.63;;
41966;SDS011;27656;53.068;8.818;2024-03-02T06:17:53;18.07;;;12.80;;
41966;SDS011;27656;53.068;8.818;2024-03-02T06:20:19;23.63;;;13.37;;
41966;SDS011;27656;53.068;8.818;2024-03-02T06:22:46;23.40;;;13.27;;
41966;SDS011;27656;53.068;8.818;2024-03-02T06:25:12;20.70;;;13.17;;
41966;SDS011;27656;53.068;8.818;2024-03-02T06:27:39;17.87;;;12.70;;
41966;SDS011;27656;53.068;8.818;2024-03-02T06:30:06;22.63;;;12.67;;
41966;SDS011;27656;53.068;8.818;2024-03-02T06:32:33;19.50;;;12.20;;
41966;SDS011;27656;53.068;8.818;2024-03-02T06:34:59;19.93;;;13.47;;
41966;SDS011;27656;53.068;8.818;2024-03-02T06:37:26;19.90;;;12.33;;
41966;SDS011;27656;53.068;8.818;2024-03-02T06:39:52;21.20;;;13.47;;
41966;SDS011;27656;53.068;8.818;2024-03-02T06:42:19;19.77;;;12.87;;
41966;SDS011;27656;53.068;8.818;2024-03-02T06:44:45;20.53;;;13.03;;
41966;SDS011;27656;53.068;8.818;2024-03-02T06:47:11;22.57;;;13.20;;
41966;SDS011;27656;53.068;8.818;2024-03-02T06:49:38;22.47;;;13.73;;
41966;SDS011;27656;53.068;8.818;2024-03-02T06:52:04;22.00;;;13.83;;
41966;SDS011;27656;53.068;8.818;2024-03-02T06:54:31;20.33;;;13.07;;
41966;SDS011;27656;53.068;8.818;2024-03-02T06:56:57;20.80;;;13.30;;
41966;SDS011;27656;53.068;8.818;2024-03-02T06:59:24;19.87;;;13.00;;
41966;SDS011;27656;53.068;8.818;2024-03-02T07:01:50;21.17;;;13.17;;
41966;SDS011;27656;53.068;8.818;2024-03-02T07:04:17;19.83;;;12.80;;
41966;SDS011;27656;53.068;8.818;2024-03-02T07:06:43;21.87;;;13.57;;
41966;SDS011;27656;53.068;8.818;2024-03-02T07:09:10;19.10;;;12.70;;
41966;SDS011;27656;53.068;8.818;2024-03-02T07:11:37;21.90;;;13.07;;
41966;SDS011;27656;53.068;8.818;2024-03-02T07:14:03;19.30;;;11.87;;
41966;SDS011;27656;53.068;8.818;2024-03-02T07:16:30;20.50;;;12.97;;
41966;SDS011;27656;53.068;8.818;2024-03-02T07:18:59;19.53;;;12.40;;
41966;SDS011;27656;53.068;8.818;2024-03-02T07:21:27;19.67;;;12.87;;
41966;SDS011;27656;53.068;8.818;2024-03-02T07:23:54;21.67;;;13.57;;
41966;SDS011;27656;53.068;8.818;2024-03-02T07:26:20;22.73;;;13.43;;
41966;SDS011;27656;53.068;8.818;2024-03-02T07:28:50;18.57;;;12.70;;
41966;SDS011;27656;53.068;8.818;2024-03-02T07:31:17;19.27;;;12.20;;
41966;SDS011;27656;53.068;8.818;2024-03-02T07:33:44;19.27;;;12.67;;
41966;SDS011;27656;53.068;8.818;2024-03-02T07:36:11;19.87;;;12.87;;
41966;SDS011;27656;53.068;8.818;2024-03-02T07:38:39;21.90;;;13.00;;
41966;SDS011;27656;53.068;8.818;2024-03-02T07:41:07;19.07;;;12.83;;
41966;SDS011;27656;53.068;8.818;2024-03-02T07:43:34;20.97;;;13.07;;
41966;SDS011;27656;53.068;8.818;2024-03-02T07:46:00;19.10;;;12.00;;
41966;SDS011;27656;53.068;8.818;2024-03-02T07:48:29;22.13;;;13.60;;
41966;SDS011;27656;53.068;8.818;2024-03-02T07:50:57;17.40;;;11.70;;
41966;SDS011;27656;53.068;8.818;2024-03-02T07:53:23;19.33;;;12.80;;
41966;SDS011;27656;53.068;8.818;2024-03-02T07:55:50;18.63;;;13.10;;
41966;SDS011;27656;53.068;8.818;2024-03-02T07:58:16;19.00;;;12.47;;
41966;SDS011;27656;53.068;8.818;2024-03-02T08:00:46;18.93;;;12.70;;
41966;SDS011;27656;53.068;8.818;2024-03-02T08:03:13;20.30;;;12.77;;
41966;SDS011;27656;53.068;8.818;2024-03-02T08:05:40;19.40;;;12.83;;
41966;SDS011;27656;53.068;8.818;2024-03-02T08:08:06;18.87;;;12.90;;
41966;SDS011;27656;53.068;8.818;2024-03-02T08:10:33;22.50;;;12.77;;
41966;SDS011;27656;53.068;8.818;2024-03-02T08:12:59;23.33;;;13.20;;
41966;SDS011;27656;53.068;8.818;2024-03-02T08:15:26;20.17;;;13.07;;
41966;SDS011;27656;53.068;8.818;2024-03-02T08:17:52;25.00;;;13.93;;
41966;SDS011;27656;53.068;8.818;2024-03-02T08:20:19;18.77;;;12.13;;
41966;SDS011;27656;53.068;8.818;2024-03-02T08:22:46;20.50;;;12.47;;
41966;SDS011;27656;53.068;8.818;2024-03-02T08:25:13;20.10;;;12.90;;
41966;SDS011;27656;53.068;8.818;2024-03-02T08:27:40;21.00;;;12.33;;
41966;SDS011;27656;53.068;8.818;2024-03-02T08:30:06;22.60;;;13.40;;
41966;SDS011;27656;53.068;8.818;2024-03-02T08:32:34;20.00;;;12.77;;
41966;SDS011;27656;53.068;8.818;2024-03-02T08:35:01;20.60;;;13.30;;
41966;SDS011;27656;53.068;8.818;2024-03-02T08:37:27;22.97;;;13.80;;
41966;SDS011;27656;53.068;8.818;2024-03-02T08:39:54;22.37;;;13.70;;
41966;SDS011;27656;53.068;8.818;2024-03-02T08:42:20;20.13;;;13.13;;
41966;SDS011;27656;53.068;8.818;2024-03-02T08:44:48;19.23;;;12.47;;
41966;SDS011;27656;53.068;8.818;2024-03-02T08:47:15;17.43;;;11.67;;
41966;SDS011;27656;53.068;8.818;2024-03-02T08:49:41;20.80;;;13.50;;
41966;SDS011;27656;53.068;8.818;2024-03-02T08:52:08;21.70;;;13.17;;
41966;SDS011;27656;53.068;8.818;2024-03-02T08:54:35;19.63;;;12.87;;
41966;SDS011;27656;53.068;8.818;2024-03-02T08:57:02;22.80;;;13.30;;
41966;SDS011;27656;53.068;8.818;2024-03-02T08:59:28;22.17;;;14.03;;
41966;SDS011;27656;53.068;8.818;2024-03-02T09:01:55;20.63;;;13.43;;
41966;SDS011;27656;53.068;8.818;2024-03-02T09:04:21;20.70;;;12.93;;
41966;SDS011;27656;53.068;8.818;2024-03-02T09:06:52;19.23;;;12.73;;
41966;SDS011;27656;53.068;8.818;2024-03-02T09:09:19;21.90;;;13.43;;
41966;SDS011;27656;53.068;8.818;2024-03-02T09:11:46;23.67;;;14.07;;
41966;SDS011;27656;53.068;8.818;2024-03-02T09:14:13;20.47;;;12.50;;
41966;SDS011;27656;53.068;8.818;2024-03-02T09:16:41;19.10;;;12.43;;
41966;SDS011;27656;53.068;8.818;2024-03-02T09:19:08;15.90;;;10.90;;
41966;SDS011;27656;53.068;8.818;2024-03-02T09:21:36;18.50;;;11.27;;
41966;SDS011;27656;53.068;8.818;2024-03-02T09:24:03;22.83;;;12.77;;
41966;SDS011;27656;53.068;8.818;2024-03-02T09:26:30;20.73;;;12.40;;
41966;SDS011;27656;53.068;8.818;2024-03-02T09:28:56;19.57;;;12.10;;
41966;SDS011;27656;53.068;8.818;2024-03-02T09:31:22;16.97;;;10.77;;
41966;SDS011;27656;53.068;8.818;2024-03-02T09:33:49;17.03;;;10.60;;
41966;SDS011;27656;53.068;8.818;2024-03-02T09:36:16;17.87;;;11.40;;
41966;SDS011;27656;53.068;8.818;2024-03-02T09:38:46;16.67;;;10.83;;
41966;SDS011;27656;53.068;8.818;2024-03-02T09:41:13;16.33;;;11.20;;
41966;SDS011;27656;53.068;8.818;2024-03-02T09:43:40;14.40;;;10.20;;
41966;SDS011;27656;53.068;8.818;2024-03-02T09:46:10;15.90;;;10.80;;
41966;SDS011;27656;53.068;8.818;2024-03-02T09:48:37;19.90;;;11.93;;
41966;SDS011;27656;53.068;8.818;2024-03-02T09:51:04;17.40;;;10.53;;
41966;SDS011;27656;53.068;8.818;2024-03-02T09:53:33;19.87;;;11.03;;
41966;SDS011;27656;53.068;8.818;2024-03-02T09:56:00;16.87;;;10.97;;
41966;SDS011;27656;53.068;8.818;2024-03-02T09:58:27;17.17;;;10.73;;
41966;SDS011;27656;53.068;8.818;2024-03-02T10:00:53;14.70;;;10.33;;
41966;SDS011;27656;53.068;8.818;2024-03-02T10:03:20;18.47;;;11.60;;
41966;SDS011;27656;53.068;8.818;2024-03-02T10:05:49;13.87;;;10.40;;
41966;SDS011;27656;53.068;8.818;2024-03-02T10:08:15;20.37;;;12.63;;
41966;SDS011;27656;53.068;8.818;2024-03-02T10:10:42;17.67;;;11.03;;
41966;SDS011;27656;53.068;8.818;2024-03-02T10:13:10;14.80;;;10.10;;
41966;SDS011;27656;53.068;8.818;2024-03-02T10:15:38;16.10;;;10.80;;
41966;SDS011;27656;53.068;8.818;2024-03-02T10:18:12;17.60;;;11.07;;
41966;SDS011;27656;53.068;8.818;2024-03-02T10:20:39;19.07;;;11.33;;
41966;SDS011;27656;53.068;8.818;2024-03-02T10:23:13;15.53;;;10.60;;
41966;SDS011;27656;53.068;8.818;2024-03-02T10:25:42;15.97;;;10.33;;
41966;SDS011;27656;53.068;8.818;2024-03-02T10:28:22;18.67;;;9.93;;
41966;SDS011;27656;53.068;8.818;2024-03-02T10:30:49;14.90;;;9.40;;
41966;SDS011;27656;53.068;8.818;2024-03-02T10:33:18;14.77;;;9.43;;
41966;SDS011;27656;53.068;8.818;2024-03-02T10:35:45;17.93;;;10.20;;
41966;SDS011;27656;53.068;8.818;2024-03-02T10:38:11;13.57;;;8.87;;
41966;SDS011;27656;53.068;8.818;2024-03-02T10:40:38;14.77;;;9.07;;
41966;SDS011;27656;53.068;8.818;2024-03-02T10:43:05;13.43;;;8.10;;
41966;SDS011;27656;53.068;8.818;2024-03-02T10:45:34;12.83;;;9.57;;
41966;SDS011;27656;53.068;8.818;2024-03-02T10:48:01;15.87;;;10.77;;
41966;SDS011;27656;53.068;8.818;2024-03-02T10:50:28;13.53;;;8.30;;
41966;SDS011;27656;53.068;8.818;2024-03-02T10:52:56;14.47;;;8.30;;
41966;SDS011;27656;53.068;8.818;2024-03-02T10:55:22;14.20;;;8.80;;
41966;SDS011;27656;53.068;8.818;2024-03-02T10:57:53;10.53;;;7.83;;
41966;SDS011;27656;53.068;8.818;2024-03-02T11:00:24;11.77;;;7.70;;
41966;SDS011;27656;53.068;8.818;2024-03-02T11:02:57;12.83;;;8.07;;
41966;SDS011;27656;53.068;8.818;2024-03-02T11:05:28;11.83;;;8.03;;
41966;SDS011;27656;53.068;8.818;2024-03-02T11:08:06;12.27;;;7.63;;
41966;SDS011;27656;53.068;8.818;2024-03-02T11:10:36;11.23;;;6.97;;
41966;SDS011;27656;53.068;8.818;2024-03-02T11:13:14;8.40;;;6.27;;
41966;SDS011;27656;53.068;8.818;2024-03-02T11:15:42;10.03;;;7.07;;
41966;SDS011;27656;53.068;8.818;2024-03-02T11:18:10;11.63;;;7.53;;
41966;SDS011;27656;53.068;8.818;2024-03-02T11:20:38;10.00;;;6.87;;
41966;SDS011;27656;53.068;8.818;2024-03-02T11:23:06;9.87;;;6.90;;
41966;SDS011;27656;53.068;8.818;2024-03-02T11:25:34;10.37;;;6.53;;
41966;SDS011;27656;53.068;8.818;2024-03-02T11:33:01;10.03;;;7.10;;
41966;SDS011;27656;53.068;8.818;2024-03-02T11:35:40;10.90;;;7.17;;
41966;SDS011;27656;53.068;8.818;2024-03-02T11:38:15;9.23;;;6.67;;
41966;SDS011;27656;53.068;8.818;2024-03-02T11:40:42;10.80;;;6.97;;
41966;SDS011;27656;53.068;8.818;2024-03-02T11:43:08;11.47;;;7.77;;
41966;SDS011;27656;53.068;8.818;2024-03-02T11:45:35;12.20;;;7.70;;
41966;SDS011;27656;53.068;8.818;2024-03-02T11:48:06;8.87;;;6.43;;
41966;SDS011;27656;53.068;8.818;2024-03-02T11:50:48;13.30;;;7.50;;
41966;SDS011;27656;53.068;8.818;2024-03-02T11:53:16;11.57;;;7.17;;
41966;SDS011;27656;53.068;8.818;2024-03-02T11:55:44;12.23;;;7.80;;
41966;SDS011;27656;53.068;8.818;2024-03-02T11:58:15;10.77;;;6.93;;
41966;SDS011;27656;53.068;8.818;2024-03-02T12:00:50;9.20;;;6.70;;
41966;SDS011;27656;53.068;8.818;2024-03-02T12:03:20;8.83;;;6.40;;
41966;SDS011;27656;53.068;8.818;2024-03-02T12:05:53;9.70;;;7.47;;
41966;SDS011;27656;53.068;8.818;2024-03-02T12:08:20;8.63;;;6.40;;
41966;SDS011;27656;53.068;8.818;2024-03-02T12:11:00;18.67;;;7.07;;
41966;SDS011;27656;53.068;8.818;2024-03-02T12:13:29;10.50;;;7.13;;
41966;SDS011;27656;53.068;8.818;2024-03-02T12:15:56;10.90;;;6.40;;
41966;SDS011;27656;53.068;8.818;2024-03-02T12:18:23;11.07;;;6.73;;
41966;SDS011;27656;53.068;8.818;2024-03-02T12:20:50;17.27;;;12.17;;
41966;SDS011;27656;53.068;8.818;2024-03-02T12:23:20;9.10;;;6.27;;
41966;SDS011;27656;53.068;8.818;2024-03-02T12:25:46;9.33;;;6.47;;
41966;SDS011;27656;53.068;8.818;2024-03-02T12:28:13;9.03;;;6.13;;
41966;SDS011;27656;53.068;8.818;2024-03-02T12:30:40;10.57;;;6.30;;
41966;SDS011;27656;53.068;8.818;2024-03-02T12:33:07;8.90;;;6.00;;
41966;SDS011;27656;53.068;8.818;2024-03-02T12:35:33;15.17;;;8.53;;
41966;SDS011;27656;53.068;8.818;2024-03-02T12:38:02;8.47;;;6.20;;
41966;SDS011;27656;53.068;8.818;2024-03-02T12:40:28;9.43;;;6.47;;
41966;SDS011;27656;53.068;8.818;2024-03-02T12:42:57;10.50;;;6.20;;
41966;SDS011;27656;53.068;8.818;2024-03-02T12:45:23;9.00;;;5.80;;
41966;SDS011;27656;53.068;8.818;2024-03-02T12:47:51;9.67;;;6.27;;
41966;SDS011;27656;53.068;8.818;2024-03-02T12:50:18;8.60;;;5.60;;
41966;SDS011;27656;53.068;8.818;2024-03-02T12:52:54;8.40;;;5.90;;
41966;SDS011;27656;53.068;8.818;2024-03-02T12:55:22;9.80;;;6.10;;
41966;SDS011;27656;53.068;8.818;2024-03-02T12:57:50;10.67;;;6.13;;
41966;SDS011;27656;53.068;8.818;2024-03-02T13:00:18;10.13;;;6.07;;
41966;SDS011;27656;53.068;8.818;2024-03-02T13:05:49;8.47;;;5.73;;
41966;SDS011;27656;53.068;8.818;2024-03-02T13:08:19;8.70;;;5.70;;
41966;SDS011;27656;53.068;8.818;2024-03-02T13:10:45;8.10;;;5.73;;
41966;SDS011;27656;53.068;8.818;2024-03-02T13:13:12;8.93;;;5.97;;
41966;SDS011;27656;53.068;8.818;2024-03-02T13:15:39;10.37;;;6.63;;
41966;SDS011;27656;53.068;8.818;2024-03-02T13:18:07;10.50;;;6.67;;
41966;SDS011;27656;53.068;8.818;2024-03-02T13:20:33;9.37;;;6.50;;
41966;SDS011;27656;53.068;8.818;2024-03-02T13:23:00;9.70;;;6.60;;
41966;SDS011;27656;53.068;8.818;2024-03-02T13:25:27;10.77;;;6.80;;
41966;SDS011;27656;53.068;8.818;2024-03-02T13:27:58;13.00;;;6.50;;
41966;SDS011;27656;53.068;8.818;2024-03-02T13:30:25;9.33;;;6.63;;
41966;SDS011;27656;53.068;8.818;2024-03-02T13:32:52;10.17;;;6.77;;
41966;SDS011;27656;53.068;8.818;2024-03-02T13:35:20;10.87;;;6.30;;
41966;SDS011;27656;53.068;8.818;2024-03-02T13:37:47;10.57;;;7.03;;
41966;SDS011;27656;53.068;8.818;2024-03-02T13:40:13;9.17;;;6.30;;
41966;SDS011;27656;53.068;8.818;2024-03-02T13:42:44;9.53;;;6.43;;
41966;SDS011;27656;53.068;8.818;2024-03-02T13:45:11;10.67;;;6.03;;
41966;SDS011;27656;53.068;8.818;2024-03-02T13:47:39;11.30;;;6.00;;
41966;SDS011;27656;53.068;8.818;2024-03-02T13:50:05;9.13;;;6.47;;
41966;SDS011;27656;53.068;8.818;2024-03-02T13:52:34;25.33;;;14.20;;
41966;SDS011;27656;53.068;8.818;2024-03-02T13:55:00;11.60;;;6.67;;
41966;SDS011;27656;53.068;8.818;2024-03-02T13:57:27;12.80;;;6.63;;
41966;SDS011;27656;53.068;8.818;2024-03-02T13:59:54;11.20;;;6.30;;
41966;SDS011;27656;53.068;8.818;2024-03-02T14:02:21;10.20;;;5.73;;
41966;SDS011;27656;53.068;8.818;2024-03-02T14:04:48;9.47;;;5.90;;
41966;SDS011;27656;53.068;8.818;2024-03-02T14:07:16;7.77;;;5.40;;
41966;SDS011;27656;53.068;8.818;2024-03-02T14:09:42;11.47;;;5.77;;
41966;SDS011;27656;53.068;8.818;2024-03-02T14:12:10;9.10;;;5.57;;
41966;SDS011;27656;53.068;8.818;2024-03-02T14:14:36;8.70;;;5.80;;
41966;SDS011;27656;53.068;8.818;2024-03-02T14:17:03;9.40;;;5.17;;
41966;SDS011;27656;53.068;8.818;2024-03-02T14:19:32;10.90;;;6.70;;
41966;SDS011;27656;53.068;8.818;2024-03-02T14:21:58;7.03;;;5.17;;
41966;SDS011;27656;53.068;8.818;2024-03-02T14:24:26;7.10;;;4.33;;
41966;SDS011;27656;53.068;8.818;2024-03-02T14:26:54;7.90;;;5.07;;
41966;SDS011;27656;53.068;8.818;2024-03-02T14:30:08;8.10;;;4.13;;
41966;SDS011;27656;53.068;8.818;2024-03-02T14:32:36;7.97;;;4.97;;
41966;SDS011;27656;53.068;8.818;2024-03-02T14:35:03;8.97;;;5.00;;
41966;SDS011;27656;53.068;8.818;2024-03-02T14:44:31;7.33;;;5.10;;
41966;SDS011;27656;53.068;8.818;2024-03-02T14:46:58;7.63;;;4.43;;